sensor_id;sensor_type;location;lat;lon;timestamp;P1;durP1;ratioP1;P2;durP2;ratioP2
53843;SDS011;39744;53.314;5.710;2023-03-08T00:01:50;4.32;;;1.10;;
53843;SDS011;39744;53.314;5.710;2023-03-08T00:04:16;4.85;;;0.70;;
53843;SDS011;39744;53.314;5.710;2023-03-08T00:06:42;3.60;;;0.70;;
53843;SDS011;39744;53.314;5.710;2023-03-08T00:09:08;3.95;;;0.68;;
53843;SDS011;39744;53.314;5.710;2023-03-08T00:11:34;4.70;;;0.88;;
53843;SDS011;39744;53.314;5.710;2023-03-08T00:14:00;4.43;;;0.70;;
53843;SDS011;39744;53.314;5.710;2023-03-08T00:16:27;2.50;;;0.65;;
53843;SDS011;39744;53.314;5.710;2023-03-08T00:18:53;2.30;;;0.55;;
53843;SDS011;39744;53.314;5.710;2023-03-08T00:21:19;2.40;;;0.73;;
53843;SDS011;39744;53.314;5.710;2023-03-08T00:23:45;3.92;;;0.50;;
53843;SDS011;39744;53.314;5.710;2023-03-08T00:26:11;0.20;;;0.20;;
53843;SDS011;39744;53.314;5.710;2023-03-08T00:28:38;1.77;;;1.02;;
53843;SDS011;39744;53.314;5.710;2023-03-08T00:31:05;2.35;;;0.68;;
53843;SDS011;39744;53.314;5.710;2023-03-08T00:33:32;2.15;;;0.60;;
53843;SDS011;39744;53.314;5.710;2023-03-08T00:35:59;3.72;;;0.55;;
53843;SDS011;39744;53.314;5.710;2023-03-08T00:38:26;3.15;;;0.90;;
53843;SDS011;39744;53.314;5.710;2023-03-08T00:40:52;3.53;;;0.90;;
53843;SDS011;39744;53.314;5.710;2023-03-08T00:43:19;4.15;;;0.90;;
53843;SDS011;39744;53.314;5.710;2023-03-08T00:45:45;5.65;;;0.82;;
53843;SDS011;39744;53.314;5.710;2023-03-08T00:48:11;6.60;;;0.70;;
53843;SDS011;39744;53.314;5.710;2023-03-08T00:50:37;1.50;;;0.50;;
53843;SDS011;39744;53.314;5.710;2023-03-08T00:53:04;3.40;;;0.70;;
53843;SDS011;39744;53.314;5.710;2023-03-08T00:55:30;2.17;;;0.60;;
53843;SDS011;39744;53.314;5.710;2023-03-08T00:57:55;4.07;;;0.57;;
53843;SDS011;39744;53.314;5.710;2023-03-08T01:00:22;2.40;;;0.50;;
53843;SDS011;39744;53.314;5.710;2023-03-08T01:02:48;1.45;;;0.60;;
53843;SDS011;39744;53.314;5.710;2023-03-08T01:05:14;1.15;;;0.30;;
53843;SDS011;39744;53.314;5.710;2023-03-08T01:07:40;2.60;;;0.60;;
53843;SDS011;39744;53.314;5.710;2023-03-08T01:10:06;2.95;;;0.57;;
53843;SDS011;39744;53.314;5.710;2023-03-08T01:12:32;3.60;;;0.50;;
53843;SDS011;39744;53.314;5.710;2023-03-08T01:14:59;4.05;;;0.60;;
53843;SDS011;39744;53.314;5.710;2023-03-08T01:17:25;3.10;;;0.60;;
53843;SDS011;39744;53.314;5.710;2023-03-08T01:19:51;4.97;;;0.77;;
53843;SDS011;39744;53.314;5.710;2023-03-08T01:22:17;1.85;;;0.57;;
53843;SDS011;39744;53.314;5.710;2023-03-08T01:24:46;5.50;;;0.77;;
53843;SDS011;39744;53.314;5.710;2023-03-08T01:27:13;4.25;;;0.65;;
53843;SDS011;39744;53.314;5.710;2023-03-08T01:29:40;3.30;;;1.13;;
53843;SDS011;39744;53.314;5.710;2023-03-08T01:32:06;2.67;;;0.95;;
53843;SDS011;39744;53.314;5.710;2023-03-08T01:34:34;1.95;;;0.70;;
53843;SDS011;39744;53.314;5.710;2023-03-08T01:37:00;4.57;;;0.75;;
53843;SDS011;39744;53.314;5.710;2023-03-08T01:39:26;1.77;;;0.55;;
53843;SDS011;39744;53.314;5.710;2023-03-08T01:41:52;0.95;;;0.55;;
53843;SDS011;39744;53.314;5.710;2023-03-08T01:44:18;1.23;;;0.30;;
53843;SDS011;39744;53.314;5.710;2023-03-08T01:46:46;2.95;;;0.60;;
53843;SDS011;39744;53.314;5.710;2023-03-08T01:49:14;2.35;;;0.50;;
53843;SDS011;39744;53.314;5.710;2023-03-08T01:51:56;2.00;;;0.43;;
53843;SDS011;39744;53.314;5.710;2023-03-08T01:54:27;2.60;;;0.50;;
53843;SDS011;39744;53.314;5.710;2023-03-08T01:56:54;2.33;;;0.60;;
53843;SDS011;39744;53.314;5.710;2023-03-08T01:59:22;3.35;;;0.80;;
53843;SDS011;39744;53.314;5.710;2023-03-08T02:01:48;2.25;;;0.40;;
53843;SDS011;39744;53.314;5.710;2023-03-08T02:04:14;1.40;;;0.50;;
53843;SDS011;39744;53.314;5.710;2023-03-08T02:06:40;2.58;;;0.50;;
53843;SDS011;39744;53.314;5.710;2023-03-08T02:09:07;2.80;;;0.50;;
53843;SDS011;39744;53.314;5.710;2023-03-08T02:11:35;1.90;;;0.40;;
53843;SDS011;39744;53.314;5.710;2023-03-08T02:14:03;1.40;;;0.40;;
53843;SDS011;39744;53.314;5.710;2023-03-08T02:16:29;3.00;;;0.70;;
53843;SDS011;39744;53.314;5.710;2023-03-08T02:18:59;1.45;;;0.50;;
53843;SDS011;39744;53.314;5.710;2023-03-08T02:21:25;3.30;;;0.68;;
53843;SDS011;39744;53.314;5.710;2023-03-08T02:23:52;3.65;;;0.60;;
53843;SDS011;39744;53.314;5.710;2023-03-08T02:26:18;2.95;;;0.57;;
53843;SDS011;39744;53.314;5.710;2023-03-08T02:28:44;4.40;;;0.80;;
53843;SDS011;39744;53.314;5.710;2023-03-08T02:31:11;1.02;;;0.47;;
53843;SDS011;39744;53.314;5.710;2023-03-08T02:33:37;2.85;;;0.60;;
53843;SDS011;39744;53.314;5.710;2023-03-08T02:36:05;1.98;;;0.65;;
53843;SDS011;39744;53.314;5.710;2023-03-08T02:38:32;1.95;;;0.40;;
53843;SDS011;39744;53.314;5.710;2023-03-08T02:40:58;3.65;;;0.65;;
53843;SDS011;39744;53.314;5.710;2023-03-08T02:43:24;1.98;;;0.60;;
53843;SDS011;39744;53.314;5.710;2023-03-08T02:45:50;1.70;;;0.60;;
53843;SDS011;39744;53.314;5.710;2023-03-08T02:48:17;1.95;;;0.50;;
53843;SDS011;39744;53.314;5.710;2023-03-08T02:50:43;1.20;;;0.52;;
53843;SDS011;39744;53.314;5.710;2023-03-08T02:53:09;1.67;;;0.40;;
53843;SDS011;39744;53.314;5.710;2023-03-08T02:55:35;0.68;;;0.40;;
53843;SDS011;39744;53.314;5.710;2023-03-08T02:58:05;1.30;;;0.60;;
53843;SDS011;39744;53.314;5.710;2023-03-08T03:00:31;1.13;;;0.43;;
53843;SDS011;39744;53.314;5.710;2023-03-08T03:02:57;0.88;;;0.40;;
53843;SDS011;39744;53.314;5.710;2023-03-08T03:05:23;3.03;;;0.50;;
53843;SDS011;39744;53.314;5.710;2023-03-08T03:07:49;2.17;;;0.55;;
53843;SDS011;39744;53.314;5.710;2023-03-08T03:10:15;4.50;;;0.30;;
53843;SDS011;39744;53.314;5.710;2023-03-08T03:12:41;0.35;;;0.30;;
53843;SDS011;39744;53.314;5.710;2023-03-08T03:15:08;0.60;;;0.32;;
53843;SDS011;39744;53.314;5.710;2023-03-08T03:17:34;1.20;;;0.40;;
53843;SDS011;39744;53.314;5.710;2023-03-08T03:20:01;0.60;;;0.40;;
53843;SDS011;39744;53.314;5.710;2023-03-08T03:22:29;1.02;;;0.50;;
53843;SDS011;39744;53.314;5.710;2023-03-08T03:24:55;1.52;;;0.50;;
53843;SDS011;39744;53.314;5.710;2023-03-08T03:27:21;1.75;;;0.50;;
53843;SDS011;39744;53.314;5.710;2023-03-08T03:29:47;3.35;;;0.50;;
53843;SDS011;39744;53.314;5.710;2023-03-08T03:32:13;3.15;;;0.70;;
53843;SDS011;39744;53.314;5.710;2023-03-08T03:34:39;2.45;;;0.80;;
53843;SDS011;39744;53.314;5.710;2023-03-08T03:37:05;1.70;;;0.75;;
53843;SDS011;39744;53.314;5.710;2023-03-08T03:39:34;2.15;;;0.50;;
53843;SDS011;39744;53.314;5.710;2023-03-08T03:42:00;2.67;;;0.65;;
53843;SDS011;39744;53.314;5.710;2023-03-08T03:44:29;3.58;;;0.70;;
53843;SDS011;39744;53.314;5.710;2023-03-08T03:46:55;2.92;;;0.75;;
53843;SDS011;39744;53.314;5.710;2023-03-08T03:49:21;1.92;;;0.65;;
53843;SDS011;39744;53.314;5.710;2023-03-08T03:51:47;1.17;;;0.50;;
53843;SDS011;39744;53.314;5.710;2023-03-08T03:54:14;4.90;;;0.70;;
53843;SDS011;39744;53.314;5.710;2023-03-08T03:56:40;3.35;;;0.60;;
53843;SDS011;39744;53.314;5.710;2023-03-08T03:59:06;2.47;;;0.63;;
53843;SDS011;39744;53.314;5.710;2023-03-08T04:01:32;2.03;;;0.70;;
53843;SDS011;39744;53.314;5.710;2023-03-08T04:03:58;1.40;;;0.60;;
53843;SDS011;39744;53.314;5.710;2023-03-08T04:06:25;1.42;;;0.63;;
53843;SDS011;39744;53.314;5.710;2023-03-08T04:08:53;2.88;;;0.50;;
53843;SDS011;39744;53.314;5.710;2023-03-08T04:11:20;2.17;;;0.60;;
53843;SDS011;39744;53.314;5.710;2023-03-08T04:13:47;1.63;;;0.65;;
53843;SDS011;39744;53.314;5.710;2023-03-08T04:16:14;1.27;;;0.45;;
53843;SDS011;39744;53.314;5.710;2023-03-08T04:18:40;2.92;;;0.60;;
53843;SDS011;39744;53.314;5.710;2023-03-08T04:21:06;3.42;;;0.70;;
53843;SDS011;39744;53.314;5.710;2023-03-08T04:23:33;1.75;;;0.50;;
53843;SDS011;39744;53.314;5.710;2023-03-08T04:25:59;4.28;;;0.57;;
53843;SDS011;39744;53.314;5.710;2023-03-08T04:28:25;2.60;;;0.73;;
53843;SDS011;39744;53.314;5.710;2023-03-08T04:30:52;1.67;;;0.60;;
53843;SDS011;39744;53.314;5.710;2023-03-08T04:33:18;2.67;;;0.77;;
53843;SDS011;39744;53.314;5.710;2023-03-08T04:35:44;1.40;;;0.55;;
53843;SDS011;39744;53.314;5.710;2023-03-08T04:38:10;1.55;;;0.60;;
53843;SDS011;39744;53.314;5.710;2023-03-08T04:40:36;2.47;;;0.90;;
53843;SDS011;39744;53.314;5.710;2023-03-08T04:43:22;4.20;;;0.80;;
53843;SDS011;39744;53.314;5.710;2023-03-08T04:45:48;1.08;;;0.50;;
53843;SDS011;39744;53.314;5.710;2023-03-08T04:48:14;1.83;;;0.70;;
53843;SDS011;39744;53.314;5.710;2023-03-08T04:50:40;2.88;;;0.80;;
53843;SDS011;39744;53.314;5.710;2023-03-08T04:53:06;4.13;;;0.65;;
53843;SDS011;39744;53.314;5.710;2023-03-08T04:55:34;4.45;;;0.70;;
53843;SDS011;39744;53.314;5.710;2023-03-08T04:58:01;6.00;;;0.80;;
53843;SDS011;39744;53.314;5.710;2023-03-08T05:00:27;3.22;;;0.70;;
53843;SDS011;39744;53.314;5.710;2023-03-08T05:02:53;1.50;;;0.70;;
53843;SDS011;39744;53.314;5.710;2023-03-08T05:05:19;4.38;;;0.77;;
53843;SDS011;39744;53.314;5.710;2023-03-08T05:07:45;2.83;;;0.70;;
53843;SDS011;39744;53.314;5.710;2023-03-08T05:10:11;1.70;;;0.70;;
53843;SDS011;39744;53.314;5.710;2023-03-08T05:12:37;1.25;;;0.50;;
53843;SDS011;39744;53.314;5.710;2023-03-08T05:15:03;3.42;;;0.93;;
53843;SDS011;39744;53.314;5.710;2023-03-08T05:17:29;1.40;;;0.60;;
53843;SDS011;39744;53.314;5.710;2023-03-08T05:19:55;2.33;;;0.80;;
53843;SDS011;39744;53.314;5.710;2023-03-08T05:22:21;2.13;;;0.77;;
53843;SDS011;39744;53.314;5.710;2023-03-08T05:24:47;2.33;;;0.70;;
53843;SDS011;39744;53.314;5.710;2023-03-08T05:27:14;3.80;;;1.00;;
53843;SDS011;39744;53.314;5.710;2023-03-08T05:29:40;2.63;;;0.70;;
53843;SDS011;39744;53.314;5.710;2023-03-08T05:32:09;3.90;;;1.05;;
53843;SDS011;39744;53.314;5.710;2023-03-08T05:34:35;4.40;;;0.90;;
53843;SDS011;39744;53.314;5.710;2023-03-08T05:37:01;2.08;;;0.80;;
53843;SDS011;39744;53.314;5.710;2023-03-08T05:39:27;2.35;;;0.85;;
53843;SDS011;39744;53.314;5.710;2023-03-08T05:41:54;4.25;;;0.82;;
53843;SDS011;39744;53.314;5.710;2023-03-08T05:44:20;3.63;;;0.90;;
53843;SDS011;39744;53.314;5.710;2023-03-08T05:46:48;6.72;;;1.00;;
53843;SDS011;39744;53.314;5.710;2023-03-08T05:49:14;3.88;;;1.00;;
53843;SDS011;39744;53.314;5.710;2023-03-08T05:51:40;4.13;;;1.00;;
53843;SDS011;39744;53.314;5.710;2023-03-08T05:54:06;6.05;;;1.02;;
53843;SDS011;39744;53.314;5.710;2023-03-08T05:56:33;2.75;;;0.98;;
53843;SDS011;39744;53.314;5.710;2023-03-08T05:58:59;4.35;;;0.90;;
53843;SDS011;39744;53.314;5.710;2023-03-08T06:01:25;2.30;;;0.85;;
53843;SDS011;39744;53.314;5.710;2023-03-08T06:03:52;4.75;;;0.88;;
53843;SDS011;39744;53.314;5.710;2023-03-08T06:06:19;3.80;;;0.70;;
53843;SDS011;39744;53.314;5.710;2023-03-08T06:08:46;3.65;;;1.00;;
53843;SDS011;39744;53.314;5.710;2023-03-08T06:11:12;3.53;;;1.23;;
53843;SDS011;39744;53.314;5.710;2023-03-08T06:13:38;4.13;;;1.90;;
53843;SDS011;39744;53.314;5.710;2023-03-08T06:16:04;2.78;;;1.40;;
53843;SDS011;39744;53.314;5.710;2023-03-08T06:18:31;2.53;;;1.30;;
53843;SDS011;39744;53.314;5.710;2023-03-08T06:20:58;3.45;;;1.30;;
53843;SDS011;39744;53.314;5.710;2023-03-08T06:23:25;3.95;;;1.35;;
53843;SDS011;39744;53.314;5.710;2023-03-08T06:25:51;3.20;;;1.40;;
53843;SDS011;39744;53.314;5.710;2023-03-08T06:28:17;5.15;;;1.40;;
53843;SDS011;39744;53.314;5.710;2023-03-08T06:30:43;4.35;;;1.52;;
53843;SDS011;39744;53.314;5.710;2023-03-08T06:33:09;6.57;;;0.98;;
53843;SDS011;39744;53.314;5.710;2023-03-08T06:35:35;4.32;;;0.98;;
53843;SDS011;39744;53.314;5.710;2023-03-08T06:38:01;3.53;;;1.10;;
53843;SDS011;39744;53.314;5.710;2023-03-08T06:40:27;2.60;;;1.20;;
53843;SDS011;39744;53.314;5.710;2023-03-08T06:42:53;3.75;;;1.20;;
53843;SDS011;39744;53.314;5.710;2023-03-08T06:45:19;4.75;;;1.00;;
53843;SDS011;39744;53.314;5.710;2023-03-08T06:47:45;2.60;;;1.05;;
53843;SDS011;39744;53.314;5.710;2023-03-08T06:50:11;3.78;;;0.90;;
53843;SDS011;39744;53.314;5.710;2023-03-08T06:52:38;3.65;;;1.08;;
53843;SDS011;39744;53.314;5.710;2023-03-08T06:55:04;3.25;;;0.95;;
53843;SDS011;39744;53.314;5.710;2023-03-08T06:57:30;2.65;;;1.00;;
53843;SDS011;39744;53.314;5.710;2023-03-08T06:59:56;2.53;;;0.88;;
53843;SDS011;39744;53.314;5.710;2023-03-08T07:02:22;2.97;;;1.30;;
53843;SDS011;39744;53.314;5.710;2023-03-08T07:04:48;6.47;;;1.42;;
53843;SDS011;39744;53.314;5.710;2023-03-08T07:07:14;3.25;;;1.38;;
53843;SDS011;39744;53.314;5.710;2023-03-08T07:09:41;7.85;;;1.88;;
53843;SDS011;39744;53.314;5.710;2023-03-08T07:12:07;4.30;;;1.80;;
53843;SDS011;39744;53.314;5.710;2023-03-08T07:14:33;6.53;;;1.70;;
53843;SDS011;39744;53.314;5.710;2023-03-08T07:16:59;5.88;;;2.30;;
53843;SDS011;39744;53.314;5.710;2023-03-08T07:19:25;6.07;;;2.28;;
53843;SDS011;39744;53.314;5.710;2023-03-08T07:21:51;5.90;;;2.17;;
53843;SDS011;39744;53.314;5.710;2023-03-08T07:24:17;9.82;;;2.40;;
53843;SDS011;39744;53.314;5.710;2023-03-08T07:26:43;6.18;;;2.10;;
53843;SDS011;39744;53.314;5.710;2023-03-08T07:29:09;6.05;;;2.13;;
53843;SDS011;39744;53.314;5.710;2023-03-08T07:31:35;5.20;;;1.48;;
53843;SDS011;39744;53.314;5.710;2023-03-08T07:34:04;5.80;;;1.58;;
53843;SDS011;39744;53.314;5.710;2023-03-08T07:36:31;6.18;;;1.48;;
53843;SDS011;39744;53.314;5.710;2023-03-08T07:38:57;4.10;;;1.60;;
53843;SDS011;39744;53.314;5.710;2023-03-08T07:41:23;4.18;;;1.38;;
53843;SDS011;39744;53.314;5.710;2023-03-08T07:43:52;3.35;;;1.30;;
53843;SDS011;39744;53.314;5.710;2023-03-08T07:46:18;4.57;;;1.23;;
53843;SDS011;39744;53.314;5.710;2023-03-08T07:48:45;4.93;;;1.30;;
53843;SDS011;39744;53.314;5.710;2023-03-08T07:51:10;4.50;;;1.30;;
53843;SDS011;39744;53.314;5.710;2023-03-08T07:53:37;4.43;;;1.58;;
53843;SDS011;39744;53.314;5.710;2023-03-08T07:56:03;5.38;;;1.73;;
53843;SDS011;39744;53.314;5.710;2023-03-08T07:58:30;3.45;;;1.50;;
53843;SDS011;39744;53.314;5.710;2023-03-08T08:00:56;5.63;;;1.63;;
53843;SDS011;39744;53.314;5.710;2023-03-08T08:03:22;2.88;;;1.35;;
53843;SDS011;39744;53.314;5.710;2023-03-08T08:05:48;5.88;;;1.35;;
53843;SDS011;39744;53.314;5.710;2023-03-08T08:08:14;7.45;;;1.98;;
53843;SDS011;39744;53.314;5.710;2023-03-08T08:10:40;6.80;;;1.42;;
53843;SDS011;39744;53.314;5.710;2023-03-08T08:13:07;3.88;;;1.45;;
53843;SDS011;39744;53.314;5.710;2023-03-08T08:15:33;5.47;;;1.70;;
53843;SDS011;39744;53.314;5.710;2023-03-08T08:17:59;3.60;;;1.50;;
53843;SDS011;39744;53.314;5.710;2023-03-08T08:20:25;5.78;;;1.30;;
53843;SDS011;39744;53.314;5.710;2023-03-08T08:22:52;4.03;;;1.42;;
53843;SDS011;39744;53.314;5.710;2023-03-08T08:25:18;6.15;;;1.48;;
53843;SDS011;39744;53.314;5.710;2023-03-08T08:27:45;4.03;;;1.33;;
53843;SDS011;39744;53.314;5.710;2023-03-08T08:30:11;9.48;;;1.80;;
53843;SDS011;39744;53.314;5.710;2023-03-08T08:32:38;6.10;;;1.70;;
53843;SDS011;39744;53.314;5.710;2023-03-08T08:35:04;6.55;;;1.52;;
53843;SDS011;39744;53.314;5.710;2023-03-08T08:37:31;3.65;;;1.50;;
53843;SDS011;39744;53.314;5.710;2023-03-08T08:39:57;5.93;;;1.77;;
53843;SDS011;39744;53.314;5.710;2023-03-08T08:42:23;6.45;;;1.95;;
53843;SDS011;39744;53.314;5.710;2023-03-08T08:44:51;7.35;;;1.70;;
53843;SDS011;39744;53.314;5.710;2023-03-08T08:47:17;3.20;;;1.52;;
53843;SDS011;39744;53.314;5.710;2023-03-08T08:49:43;4.97;;;1.73;;
53843;SDS011;39744;53.314;5.710;2023-03-08T08:52:09;5.60;;;1.50;;
53843;SDS011;39744;53.314;5.710;2023-03-08T08:54:35;5.80;;;1.63;;
53843;SDS011;39744;53.314;5.710;2023-03-08T08:57:04;8.35;;;1.65;;
53843;SDS011;39744;53.314;5.710;2023-03-08T08:59:30;6.80;;;1.90;;
53843;SDS011;39744;53.314;5.710;2023-03-08T09:01:56;5.90;;;1.73;;
53843;SDS011;39744;53.314;5.710;2023-03-08T09:04:23;5.88;;;1.90;;
53843;SDS011;39744;53.314;5.710;2023-03-08T09:06:49;5.22;;;1.80;;
53843;SDS011;39744;53.314;5.710;2023-03-08T09:09:16;5.80;;;1.98;;
53843;SDS011;39744;53.314;5.710;2023-03-08T09:11:42;4.63;;;1.92;;
53843;SDS011;39744;53.314;5.710;2023-03-08T09:14:08;7.72;;;2.30;;
53843;SDS011;39744;53.314;5.710;2023-03-08T09:16:34;5.40;;;1.60;;
53843;SDS011;39744;53.314;5.710;2023-03-08T09:19:02;3.80;;;1.50;;
53843;SDS011;39744;53.314;5.710;2023-03-08T09:21:29;4.13;;;1.45;;
53843;SDS011;39744;53.314;5.710;2023-03-08T09:23:57;6.45;;;1.52;;
53843;SDS011;39744;53.314;5.710;2023-03-08T09:26:23;6.57;;;1.40;;
53843;SDS011;39744;53.314;5.710;2023-03-08T09:28:49;4.35;;;1.77;;
53843;SDS011;39744;53.314;5.710;2023-03-08T09:31:16;6.25;;;1.98;;
53843;SDS011;39744;53.314;5.710;2023-03-08T09:33:48;4.82;;;1.58;;
53843;SDS011;39744;53.314;5.710;2023-03-08T09:36:16;6.95;;;1.90;;
53843;SDS011;39744;53.314;5.710;2023-03-08T09:38:42;4.20;;;1.70;;
53843;SDS011;39744;53.314;5.710;2023-03-08T09:44:00;6.80;;;1.70;;
53843;SDS011;39744;53.314;5.710;2023-03-08T09:46:33;5.82;;;1.80;;
53843;SDS011;39744;53.314;5.710;2023-03-08T09:49:00;4.57;;;1.63;;
53843;SDS011;39744;53.314;5.710;2023-03-08T09:51:30;6.72;;;1.85;;
53843;SDS011;39744;53.314;5.710;2023-03-08T09:53:59;6.03;;;1.70;;
53843;SDS011;39744;53.314;5.710;2023-03-08T09:56:37;6.32;;;1.77;;
53843;SDS011;39744;53.314;5.710;2023-03-08T09:59:10;5.15;;;1.90;;
53843;SDS011;39744;53.314;5.710;2023-03-08T10:01:51;4.88;;;1.50;;
53843;SDS011;39744;53.314;5.710;2023-03-08T10:04:34;3.43;;;1.43;;
53843;SDS011;39744;53.314;5.710;2023-03-08T10:12:37;4.80;;;1.65;;
53843;SDS011;39744;53.314;5.710;2023-03-08T10:15:16;3.75;;;1.70;;
53843;SDS011;39744;53.314;5.710;2023-03-08T10:20:43;6.30;;;1.70;;
53843;SDS011;39744;53.314;5.710;2023-03-08T10:25:35;5.17;;;1.60;;
53843;SDS011;39744;53.314;5.710;2023-03-08T10:28:01;4.15;;;1.25;;
53843;SDS011;39744;53.314;5.710;2023-03-08T10:30:43;5.85;;;1.30;;
53843;SDS011;39744;53.314;5.710;2023-03-08T10:33:10;5.43;;;1.20;;
53843;SDS011;39744;53.314;5.710;2023-03-08T10:35:38;3.97;;;1.35;;
53843;SDS011;39744;53.314;5.710;2023-03-08T10:38:14;4.72;;;1.27;;
53843;SDS011;39744;53.314;5.710;2023-03-08T10:40:41;3.88;;;1.30;;
53843;SDS011;39744;53.314;5.710;2023-03-08T10:43:07;5.95;;;1.30;;
53843;SDS011;39744;53.314;5.710;2023-03-08T10:45:39;7.78;;;1.52;;
53843;SDS011;39744;53.314;5.710;2023-03-08T10:48:05;7.20;;;1.35;;
53843;SDS011;39744;53.314;5.710;2023-03-08T10:50:32;4.95;;;1.20;;
53843;SDS011;39744;53.314;5.710;2023-03-08T10:53:15;3.75;;;1.23;;
53843;SDS011;39744;53.314;5.710;2023-03-08T10:55:43;6.95;;;1.30;;
53843;SDS011;39744;53.314;5.710;2023-03-08T10:58:22;5.05;;;1.10;;
53843;SDS011;39744;53.314;5.710;2023-03-08T11:00:51;4.43;;;1.27;;
53843;SDS011;39744;53.314;5.710;2023-03-08T11:03:19;6.65;;;1.38;;
53843;SDS011;39744;53.314;5.710;2023-03-08T11:08:19;5.00;;;1.00;;
53843;SDS011;39744;53.314;5.710;2023-03-08T11:10:45;4.10;;;1.13;;
53843;SDS011;39744;53.314;5.710;2023-03-08T11:13:18;4.88;;;1.10;;
53843;SDS011;39744;53.314;5.710;2023-03-08T11:15:56;7.25;;;1.00;;
53843;SDS011;39744;53.314;5.710;2023-03-08T11:18:27;3.72;;;1.15;;
53843;SDS011;39744;53.314;5.710;2023-03-08T11:20:58;4.30;;;1.30;;
53843;SDS011;39744;53.314;5.710;2023-03-08T11:26:11;3.60;;;1.08;;
53843;SDS011;39744;53.314;5.710;2023-03-08T11:28:47;5.57;;;1.23;;
53843;SDS011;39744;53.314;5.710;2023-03-08T11:31:23;3.95;;;1.02;;
53843;SDS011;39744;53.314;5.710;2023-03-08T11:33:53;3.60;;;1.15;;
53843;SDS011;39744;53.314;5.710;2023-03-08T11:39:12;3.20;;;1.05;;
53843;SDS011;39744;53.314;5.710;2023-03-08T11:41:51;4.10;;;1.23;;
53843;SDS011;39744;53.314;5.710;2023-03-08T11:44:23;4.68;;;1.55;;
53843;SDS011;39744;53.314;5.710;2023-03-08T11:52:26;3.72;;;1.20;;
53843;SDS011;39744;53.314;5.710;2023-03-08T11:54:57;6.13;;;1.10;;
53843;SDS011;39744;53.314;5.710;2023-03-08T11:57:26;4.70;;;1.10;;
53843;SDS011;39744;53.314;5.710;2023-03-08T11:59:59;6.32;;;1.27;;
53843;SDS011;39744;53.314;5.710;2023-03-08T12:02:37;4.18;;;0.90;;
53843;SDS011;39744;53.314;5.710;2023-03-08T12:05:09;4.80;;;1.00;;
53843;SDS011;39744;53.314;5.710;2023-03-08T12:10:20;4.57;;;1.20;;
53843;SDS011;39744;53.314;5.710;2023-03-08T12:12:57;4.30;;;1.20;;
53843;SDS011;39744;53.314;5.710;2023-03-08T12:15:29;5.95;;;1.00;;
53843;SDS011;39744;53.314;5.710;2023-03-08T12:17:58;3.63;;;1.10;;
53843;SDS011;39744;53.314;5.710;2023-03-08T12:20:28;4.63;;;0.90;;
53843;SDS011;39744;53.314;5.710;2023-03-08T12:23:00;3.10;;;1.02;;
53843;SDS011;39744;53.314;5.710;2023-03-08T12:30:43;7.35;;;1.40;;
53843;SDS011;39744;53.314;5.710;2023-03-08T12:33:14;5.75;;;0.90;;
53843;SDS011;39744;53.314;5.710;2023-03-08T12:35:56;3.53;;;1.25;;
53843;SDS011;39744;53.314;5.710;2023-03-08T12:40:49;4.50;;;1.02;;
53843;SDS011;39744;53.314;5.710;2023-03-08T12:45:45;3.55;;;1.00;;
53843;SDS011;39744;53.314;5.710;2023-03-08T12:50:55;2.88;;;0.93;;
53843;SDS011;39744;53.314;5.710;2023-03-08T12:53:23;6.82;;;0.98;;
53843;SDS011;39744;53.314;5.710;2023-03-08T12:56:04;5.07;;;0.90;;
53843;SDS011;39744;53.314;5.710;2023-03-08T12:58:32;5.80;;;1.15;;
53843;SDS011;39744;53.314;5.710;2023-03-08T13:01:05;2.78;;;0.90;;
53843;SDS011;39744;53.314;5.710;2023-03-08T13:03:39;4.80;;;0.90;;
53843;SDS011;39744;53.314;5.710;2023-03-08T13:06:23;4.55;;;1.00;;
53843;SDS011;39744;53.314;5.710;2023-03-08T13:08:57;3.45;;;0.90;;
53843;SDS011;39744;53.314;5.710;2023-03-08T13:11:24;4.65;;;1.05;;
53843;SDS011;39744;53.314;5.710;2023-03-08T13:13:54;4.95;;;1.00;;
53843;SDS011;39744;53.314;5.710;2023-03-08T13:16:34;2.85;;;0.90;;
53843;SDS011;39744;53.314;5.710;2023-03-08T13:21:49;6.45;;;1.17;;
53843;SDS011;39744;53.314;5.710;2023-03-08T13:29:46;4.85;;;1.10;;
53843;SDS011;39744;53.314;5.710;2023-03-08T13:32:14;2.17;;;0.82;;
53843;SDS011;39744;53.314;5.710;2023-03-08T13:34:41;4.93;;;1.13;;
53843;SDS011;39744;53.314;5.710;2023-03-08T13:37:23;3.97;;;0.80;;
53843;SDS011;39744;53.314;5.710;2023-03-08T13:39:54;3.17;;;1.50;;
53843;SDS011;39744;53.314;5.710;2023-03-08T13:42:20;2.47;;;0.75;;
53843;SDS011;39744;53.314;5.710;2023-03-08T13:44:52;4.93;;;1.88;;
53843;SDS011;39744;53.314;5.710;2023-03-08T13:47:20;1.92;;;0.82;;
53843;SDS011;39744;53.314;5.710;2023-03-08T13:49:47;4.43;;;1.08;;
53843;SDS011;39744;53.314;5.710;2023-03-08T13:52:21;2.72;;;0.82;;
53843;SDS011;39744;53.314;5.710;2023-03-08T13:54:49;2.90;;;0.80;;
53843;SDS011;39744;53.314;5.710;2023-03-08T13:57:17;5.50;;;1.02;;
53843;SDS011;39744;53.314;5.710;2023-03-08T13:59:48;3.33;;;0.95;;
53843;SDS011;39744;53.314;5.710;2023-03-08T14:02:22;4.22;;;1.13;;
53843;SDS011;39744;53.314;5.710;2023-03-08T14:04:49;3.90;;;0.82;;
53843;SDS011;39744;53.314;5.710;2023-03-08T14:09:47;4.53;;;0.90;;
53843;SDS011;39744;53.314;5.710;2023-03-08T14:12:18;3.95;;;0.90;;
53843;SDS011;39744;53.314;5.710;2023-03-08T14:14:49;5.90;;;1.08;;
53843;SDS011;39744;53.314;5.710;2023-03-08T14:17:20;2.08;;;0.75;;
53843;SDS011;39744;53.314;5.710;2023-03-08T14:19:51;5.63;;;0.75;;
53843;SDS011;39744;53.314;5.710;2023-03-08T14:22:17;2.97;;;0.90;;
53843;SDS011;39744;53.314;5.710;2023-03-08T14:24:47;3.63;;;0.77;;
53843;SDS011;39744;53.314;5.710;2023-03-08T14:29:40;3.90;;;0.93;;
53843;SDS011;39744;53.314;5.710;2023-03-08T14:37:04;2.50;;;0.80;;
53843;SDS011;39744;53.314;5.710;2023-03-08T14:39:31;5.20;;;1.08;;
53843;SDS011;39744;53.314;5.710;2023-03-08T14:42:06;3.17;;;0.90;;
53843;SDS011;39744;53.314;5.710;2023-03-08T14:44:33;2.70;;;0.90;;
53843;SDS011;39744;53.314;5.710;2023-03-08T14:47:16;3.08;;;0.93;;
53843;SDS011;39744;53.314;5.710;2023-03-08T14:49:43;2.95;;;0.93;;
53843;SDS011;39744;53.314;5.710;2023-03-08T14:52:19;4.78;;;1.20;;
53843;SDS011;39744;53.314;5.710;2023-03-08T14:54:45;4.30;;;1.00;;
53843;SDS011;39744;53.314;5.710;2023-03-08T14:59:40;3.63;;;1.10;;
53843;SDS011;39744;53.314;5.710;2023-03-08T15:02:10;2.05;;;0.90;;
53843;SDS011;39744;53.314;5.710;2023-03-08T15:04:37;3.55;;;0.98;;
53843;SDS011;39744;53.314;5.710;2023-03-08T15:07:03;4.35;;;1.05;;
53843;SDS011;39744;53.314;5.710;2023-03-08T15:09:29;3.47;;;1.00;;
53843;SDS011;39744;53.314;5.710;2023-03-08T15:11:56;3.97;;;1.13;;
53843;SDS011;39744;53.314;5.710;2023-03-08T15:14:26;2.60;;;0.90;;
53843;SDS011;39744;53.314;5.710;2023-03-08T15:16:54;3.92;;;1.00;;
53843;SDS011;39744;53.314;5.710;2023-03-08T15:19:22;7.07;;;1.10;;
53843;SDS011;39744;53.314;5.710;2023-03-08T15:21:48;3.42;;;0.93;;
53843;SDS011;39744;53.314;5.710;2023-03-08T15:24:14;3.28;;;1.02;;
53843;SDS011;39744;53.314;5.710;2023-03-08T15:26:44;4.65;;;1.00;;
53843;SDS011;39744;53.314;5.710;2023-03-08T15:29:23;4.90;;;0.82;;
53843;SDS011;39744;53.314;5.710;2023-03-08T15:31:50;3.40;;;0.85;;
53843;SDS011;39744;53.314;5.710;2023-03-08T15:34:16;2.08;;;0.75;;
53843;SDS011;39744;53.314;5.710;2023-03-08T15:36:43;2.83;;;1.10;;
53843;SDS011;39744;53.314;5.710;2023-03-08T15:39:11;4.28;;;1.00;;
53843;SDS011;39744;53.314;5.710;2023-03-08T15:41:37;6.78;;;1.00;;
53843;SDS011;39744;53.314;5.710;2023-03-08T15:44:03;2.25;;;0.93;;
53843;SDS011;39744;53.314;5.710;2023-03-08T15:46:29;2.90;;;1.20;;
53843;SDS011;39744;53.314;5.710;2023-03-08T15:48:55;2.38;;;1.00;;
53843;SDS011;39744;53.314;5.710;2023-03-08T15:51:23;4.57;;;0.90;;
53843;SDS011;39744;53.314;5.710;2023-03-08T15:53:50;8.98;;;1.85;;
53843;SDS011;39744;53.314;5.710;2023-03-08T15:56:16;4.72;;;1.23;;